Time;durP1;ratioP1;P1;durP2;ratioP2;P2;SDS_P1;SDS_P2;PMS_P1;PMS_P2;Temp;Humidity;BMP_temperature;BMP_pressure;BME280_temperature;BME280_humidity;BME280_pressure;Samples;Min_cycle;Max_cycle;Signal;HPM_P1;HPM_P2
2022/06/10 00:00:51;;;;;;;7.90;3.28;;;;;;;12.96;83.24;101275.72;4975210;28;20181;-72
2022/06/10 00:03:54;;;;;;;8.13;3.78;;;;;;;12.72;83.80;101269.91;4974848;28;20409;-72
2022/06/10 00:06:58;;;;;;;9.20;3.22;;;;;;;12.68;83.74;101274.47;4975145;28;20045;-72
2022/06/10 00:10:03;;;;;;;14.63;3.63;;;;;;;12.59;84.61;101276.69;4975112;28;20042;-72
2022/06/10 00:13:07;;;;;;;5.75;3.92;;;;;;;12.48;85.54;101277.22;4974823;28;20070;-72
2022/06/10 00:16:11;;;;;;;7.30;4.15;;;;;;;12.76;84.31;101277.56;4962863;28;20527;-73
2022/06/10 00:19:15;;;;;;;6.70;3.63;;;;;;;12.65;85.00;101285.09;4974686;28;20093;-72
2022/06/10 00:22:18;;;;;;;;;;;;;;;12.54;85.57;101288.28;4975033;28;20466;-72
2022/06/10 00:25:22;;;;;;;4.97;4.03;;;;;;;12.69;85.06;101285.81;4974642;28;19925;-72
2022/06/10 00:28:25;;;;;;;5.05;3.55;;;;;;;12.58;84.24;101288.97;4974800;28;20101;-72
2022/06/10 00:31:28;;;;;;;5.60;3.63;;;;;;;12.44;85.13;101299.25;4974415;28;20046;-72
2022/06/10 00:34:35;;;;;;;8.15;3.63;;;;;;;12.41;85.23;101302.03;4974641;28;20069;-72
2022/06/10 00:37:38;;;;;;;7.15;3.72;;;;;;;12.43;84.98;101294.94;4974624;28;20049;-72
2022/06/10 00:40:49;;;;;;;11.00;4.30;;;;;;;12.37;85.73;101303.09;4974235;28;20054;-72
2022/06/10 00:43:53;;;;;;;6.85;3.90;;;;;;;12.32;85.96;101293.69;4974483;28;20041;-72
2022/06/10 00:46:57;;;;;;;7.53;3.33;;;;;;;12.39;84.63;101293.41;4974129;28;20050;-72
2022/06/10 00:50:16;;;;;;;8.55;3.65;;;;;;;12.44;83.86;101301.88;4974172;28;20416;-72
2022/06/10 00:53:23;;;;;;;5.93;3.92;;;;;;;12.24;84.78;101301.03;4974108;28;20628;-72
2022/06/10 00:56:28;;;;;;;6.82;3.38;;;;;;;12.22;84.44;101302.03;4974124;28;20049;-72
2022/06/10 00:59:38;;;;;;;4.25;3.25;;;;;;;12.18;83.51;101301.34;4973977;28;20061;-72
2022/06/10 01:02:42;;;;;;;7.15;3.42;;;;;;;12.13;83.42;101299.88;4974018;28;20050;-72
2022/06/10 01:05:45;;;;;;;4.18;3.35;;;;;;;12.04;83.68;101298.50;4973926;28;20119;-72
2022/06/10 01:08:51;;;;;;;7.55;3.75;;;;;;;12.03;83.91;101296.81;4973817;28;20130;-72
2022/06/10 01:12:15;;;;;;;4.50;2.70;;;;;;;12.05;83.66;101294.97;4973861;28;20177;-72
2022/06/10 01:15:53;;;;;;;9.25;3.85;;;;;;;12.12;83.10;101290.28;4973527;28;20090;-72
2022/06/10 01:19:30;;;;;;;6.13;3.63;;;;;;;12.07;83.41;101293.13;4971309;28;20074;-72
2022/06/10 01:22:33;;;;;;;9.15;3.67;;;;;;;12.05;83.26;101289.72;4962720;28;20089;-73
2022/06/10 01:25:55;;;;;;;5.90;4.32;;;;;;;12.10;82.64;101293.84;4973384;28;20101;-73
2022/06/10 01:29:24;;;;;;;6.07;3.70;;;;;;;12.19;82.33;101294.31;4973447;28;20053;-72
2022/06/10 01:32:50;;;;;;;7.43;3.35;;;;;;;12.07;82.30;101301.00;4973426;28;20070;-73
2022/06/10 01:35:53;;;;;;;6.75;3.78;;;;;;;11.96;82.82;101295.38;4973626;28;20121;-73
2022/06/10 01:39:02;;;;;;;6.07;3.75;;;;;;;11.90;83.24;101307.03;4973211;28;20070;-72
2022/06/10 01:42:25;;;;;;;6.80;4.10;;;;;;;12.02;82.87;101295.09;4973500;28;20092;-72
2022/06/10 01:45:28;;;;;;;6.93;3.72;;;;;;;12.04;82.92;101298.50;4972274;28;20050;-73
2022/06/10 01:48:39;;;;;;;8.20;3.80;;;;;;;12.23;82.16;101294.13;4973206;28;20053;-72
2022/06/10 01:51:51;;;;;;;8.45;3.70;;;;;;;12.03;83.07;101295.03;4973206;28;20066;-72
2022/06/10 01:55:21;;;;;;;8.10;3.97;;;;;;;12.01;82.73;101301.28;4973143;28;20508;-72
2022/06/10 01:58:49;;;;;;;5.70;3.70;;;;;;;11.87;82.78;101304.53;4972724;28;20121;-72
2022/06/10 02:02:02;;;;;;;9.90;4.05;;;;;;;11.76;83.06;101310.19;4973184;28;20037;-72
2022/06/10 02:05:19;;;;;;;7.72;3.25;;;;;;;11.73;82.33;101309.50;4973128;28;20078;-72
2022/06/10 02:08:32;;;;;;;5.90;3.72;;;;;;;11.58;82.88;101301.41;4973115;28;20511;-73
2022/06/10 02:11:39;;;;;;;11.27;3.75;;;;;;;11.60;82.83;101310.03;4973080;28;20470;-72
2022/06/10 02:14:53;;;;;;;8.90;4.25;;;;;;;11.50;83.43;101308.75;4972882;28;20596;-72
2022/06/10 02:18:04;;;;;;;11.85;4.30;;;;;;;11.53;83.76;101315.63;4972941;28;20150;-72
2022/06/10 02:21:21;;;;;;;9.80;4.47;;;;;;;11.48;83.92;101314.97;4972907;28;20420;-72
2022/06/10 02:24:29;;;;;;;7.20;4.70;;;;;;;11.45;84.07;101321.16;4972939;28;20049;-72
2022/06/10 02:27:37;;;;;;;5.43;4.05;;;;;;;11.66;83.77;101318.56;4972645;28;20062;-72
2022/06/10 02:31:08;;;;;;;7.22;3.67;;;;;;;11.71;83.26;101325.28;4972899;28;20464;-72
2022/06/10 02:34:12;;;;;;;8.23;4.32;;;;;;;11.80;82.79;101317.00;4972784;28;20061;-72
2022/06/10 02:37:25;;;;;;;7.53;4.28;;;;;;;11.62;83.63;101330.94;4972921;28;20528;-72
2022/06/10 02:40:30;;;;;;;9.93;4.45;;;;;;;11.50;84.72;101332.31;4972603;28;20045;-72
2022/06/10 02:43:51;;;;;;;7.63;5.22;;;;;;;11.43;84.77;101327.41;4972696;28;20408;-72
2022/06/10 02:46:59;;;;;;;9.65;5.10;;;;;;;11.43;84.56;101333.50;4972653;28;20190;-72
2022/06/10 02:50:03;;;;;;;5.80;4.43;;;;;;;11.49;84.36;101342.88;4972703;28;20556;-72
2022/06/10 02:53:07;;;;;;;7.75;4.15;;;;;;;11.45;84.05;101336.03;4962505;28;20058;-72
2022/06/10 02:56:26;;;;;;;5.93;3.65;;;;;;;11.49;83.43;101332.38;4969353;28;20054;-72
2022/06/10 03:03:05;;;;;;;5.72;4.72;;;;;;;11.59;82.60;101347.63;4971216;28;20134;-71
2022/06/10 03:06:23;;;;;;;4.65;4.18;;;;;;;11.54;82.89;101338.25;4937672;29;20078;-72
2022/06/10 03:09:53;;;;;;;12.90;4.65;;;;;;;11.43;83.80;101348.38;4937516;29;20051;-72
2022/06/10 03:13:32;;;;;;;5.75;4.72;;;;;;;11.50;83.93;101349.78;4973639;28;20054;-71
2022/06/10 03:16:55;;;;;;;8.60;3.80;;;;;;;11.23;84.38;101355.28;4937211;29;20111;-72
2022/06/10 03:20:17;;;;;;;8.02;4.57;;;;;;;11.20;84.47;101346.69;4937394;29;20054;-72
2022/06/10 03:23:30;;;;;;;7.68;3.97;;;;;;;11.38;83.51;101352.00;4937393;29;20167;-72
2022/06/10 03:26:58;;;;;;;6.15;4.63;;;;;;;11.29;84.11;101357.63;4936909;29;20058;-72
2022/06/10 03:30:08;;;;;;;4.97;4.22;;;;;;;11.48;83.67;101364.72;4936870;29;20050;-72
2022/06/10 03:33:21;;;;;;;7.95;4.63;;;;;;;11.61;82.90;101360.66;4937126;29;20051;-72
2022/06/10 03:36:28;;;;;;;8.45;4.53;;;;;;;11.27;83.30;101364.72;4937303;29;20050;-72
2022/06/10 03:39:31;;;;;;;6.55;3.40;;;;;;;11.13;83.33;101361.81;4924158;29;20148;-71
2022/06/10 03:42:34;;;;;;;5.85;3.63;;;;;;;11.02;83.28;101364.03;4917838;29;20135;-71
2022/06/10 03:45:45;;;;;;;7.82;3.10;;;;;;;11.17;82.41;101369.47;4932309;29;20054;-71
2022/06/10 03:48:51;;;;;;;5.10;2.45;;;;;;;11.15;82.70;101366.06;4937398;29;20042;-72
2022/06/10 03:52:50;;;;;;;6.55;3.53;;;;;;;11.02;83.03;101364.03;4936105;29;20039;-72
2022/06/10 03:55:54;;;;;;;6.55;4.50;;;;;;;10.99;83.49;101374.63;4861687;29;20085;-72
2022/06/10 03:59:27;;;;;;;6.28;3.63;;;;;;;11.13;83.55;101380.13;4917499;29;20418;-71
2022/06/10 04:02:49;;;;;;;10.43;4.50;;;;;;;11.35;82.28;101383.56;4917520;29;20087;-70
2022/06/10 04:05:53;;;;;;;4.70;3.60;;;;;;;11.50;81.70;101387.31;4917418;29;20044;-70
2022/06/10 04:08:56;;;;;;;;;;;;;;;11.43;81.55;101387.66;4916994;29;20055;-72
2022/06/10 04:11:59;;;;;;;9.35;4.10;;;;;;;11.30;82.26;101396.00;4921124;29;19937;-72
2022/06/10 04:15:04;;;;;;;;;;;;;;;11.04;83.63;101383.13;4936737;29;20050;-70
2022/06/10 04:18:07;;;;;;;6.35;3.65;;;;;;;11.00;84.04;101394.63;4936334;29;20444;-72
2022/06/10 04:21:10;;;;;;;;;;;;;;;11.02;83.90;101403.28;4936632;29;20062;-71
2022/06/10 04:24:13;;;;;;;6.40;3.30;;;;;;;10.96;84.00;101395.66;4936065;29;20013;-69
2022/06/10 04:27:17;;;;;;;5.45;3.72;;;;;;;10.93;84.00;101394.03;4936274;29;20476;-69
2022/06/10 04:30:25;;;;;;;6.85;4.20;;;;;;;10.87;84.47;101405.56;4936062;29;20103;-70
2022/06/10 04:33:28;;;;;;;5.82;3.47;;;;;;;10.92;84.28;101406.25;4936178;29;20525;-69
2022/06/10 04:36:32;;;;;;;9.32;3.58;;;;;;;11.09;82.99;101397.72;4936120;29;20094;-69
2022/06/10 04:39:35;;;;;;;5.82;3.17;;;;;;;11.38;81.80;101404.38;4948875;29;20058;-68
2022/06/10 04:42:40;;;;;;;6.07;3.78;;;;;;;11.36;81.69;101411.47;4954958;29;20105;-68
2022/06/10 04:45:51;;;;;;;9.20;4.18;;;;;;;11.27;81.53;101408.38;4955030;29;20412;-69
2022/06/10 04:48:55;;;;;;;5.30;3.90;;;;;;;11.10;82.47;101414.28;4954972;29;20186;-69
2022/06/10 04:52:00;;;;;;;7.95;3.38;;;;;;;11.00;83.60;101413.78;4954676;29;20041;-71
2022/06/10 04:55:05;;;;;;;;;;;;;;;11.06;83.79;101412.69;4965540;28;20050;-70
2022/06/10 04:58:09;;;;;;;6.03;3.58;;;;;;;11.25;82.54;101416.28;4955420;28;20017;-70
2022/06/10 05:01:12;;;;;;;4.90;3.30;;;;;;;11.39;81.64;101421.81;4953434;28;20102;-70
2022/06/10 05:04:15;;;;;;;8.82;5.22;;;;;;;11.32;82.27;101422.97;4954986;29;20146;-70
2022/06/10 05:07:19;;;;;;;7.65;4.15;;;;;;;11.35;82.74;101428.06;4962583;28;20119;-70
2022/06/10 05:10:23;;;;;;;5.90;3.55;;;;;;;11.24;83.36;101422.44;4973741;28;20404;-70
2022/06/10 05:13:26;;;;;;;5.43;3.60;;;;;;;11.66;82.10;101432.03;4969786;28;20049;-71
2022/06/10 05:16:29;;;;;;;11.05;3.60;;;;;;;11.15;84.14;101428.88;4973761;28;20409;-70
2022/06/10 05:19:33;;;;;;;8.82;4.07;;;;;;;11.31;83.91;101429.13;4967771;28;20106;-71
2022/06/10 05:22:37;;;;;;;6.93;4.10;;;;;;;11.16;83.97;101434.97;4964614;28;20049;-70
2022/06/10 05:25:41;;;;;;;;;;;;;;;11.32;83.77;101430.81;4954782;29;20066;-70
2022/06/10 05:28:46;;;;;;;4.78;4.10;;;;;;;11.17;84.34;101426.22;4957656;28;19922;-70
2022/06/10 05:31:49;;;;;;;4.18;3.47;;;;;;;11.48;83.40;101424.94;4954399;29;20089;-70
2022/06/10 05:34:53;;;;;;;;;;;;;;;11.54;83.64;101427.31;4965020;28;20527;-70
2022/06/10 05:37:56;;;;;;;4.22;3.13;;;;;;;11.67;83.41;101436.34;4955321;28;19947;-75
2022/06/10 05:42:04;;;;;;;;;;;;;;;11.72;82.93;101434.41;4973469;28;20061;-70
2022/06/10 05:44:25;;;;;;;5.03;3.90;;;;;;;11.62;84.01;101433.09;4973455;28;19925;-70
2022/06/10 05:47:33;;;;;;;6.28;4.10;;;;;;;11.79;83.62;101422.75;4973168;28;20460;-70
2022/06/10 05:50:40;;;;;;;4.10;3.40;;;;;;;11.83;83.44;101421.69;4973442;28;20046;-70
2022/06/10 05:53:44;;;;;;;11.85;4.38;;;;;;;11.81;83.61;101426.16;4973360;28;20050;-70
2022/06/10 05:56:47;;;;;;;4.57;4.00;;;;;;;11.77;84.16;101426.34;4957421;28;20054;-70
2022/06/10 05:59:52;;;;;;;7.60;3.75;;;;;;;11.84;83.93;101428.69;4953749;29;20263;-70
2022/06/10 06:02:58;;;;;;;7.93;3.88;;;;;;;11.80;84.29;101426.19;4954096;29;20114;-70
2022/06/10 06:06:01;;;;;;;6.28;3.55;;;;;;;11.88;83.56;101431.16;4964743;28;20074;-70
2022/06/10 06:09:05;;;;;;;3.92;3.15;;;;;;;12.16;82.70;101436.91;4962704;28;20041;-70
2022/06/10 06:12:08;;;;;;;;;;;;;;;11.89;84.13;101430.25;4954833;28;20121;-70
2022/06/10 06:15:13;;;;;;;5.78;3.25;;;;;;;12.15;83.93;101437.81;4934679;29;20348;-70
2022/06/10 06:18:16;;;;;;;3.65;3.10;;;;;;;12.37;82.92;101442.09;4950282;28;20049;-71
2022/06/10 06:21:20;;;;;;;6.15;3.30;;;;;;;12.31;82.92;101446.69;4961419;28;20042;-70
2022/06/10 06:24:23;;;;;;;;;;;;;;;12.33;83.40;101431.75;4934749;29;20094;-70
2022/06/10 06:27:27;;;;;;;3.58;2.70;;;;;;;12.49;83.34;101438.91;4934485;29;19921;-70
2022/06/10 06:30:33;;;;;;;5.45;3.05;;;;;;;12.59;83.25;101442.81;4935189;29;20506;-70
2022/06/10 06:33:36;;;;;;;4.22;2.70;;;;;;;12.37;84.21;101442.09;4938053;29;20054;-70
2022/06/10 06:36:45;;;;;;;3.75;2.88;;;;;;;12.52;83.93;101430.91;4938368;29;20051;-70
2022/06/10 06:39:48;;;;;;;5.03;2.90;;;;;;;12.46;83.69;101434.66;4937657;29;20063;-71
2022/06/10 06:42:52;;;;;;;5.35;2.38;;;;;;;12.75;83.25;101448.22;4938074;29;20478;-70
2022/06/10 06:45:56;;;;;;;5.55;2.72;;;;;;;12.90;83.72;101442.25;4926249;29;20516;-71
2022/06/10 06:49:00;;;;;;;3.03;2.55;;;;;;;13.06;83.84;101441.53;4937659;29;20054;-71
2022/06/10 06:52:06;;;;;;;5.80;3.58;;;;;;;13.26;83.33;101444.06;4938158;29;20098;-75
2022/06/10 06:55:10;;;;;;;4.20;2.47;;;;;;;13.31;82.40;101434.19;4938144;29;20062;-75
2022/06/10 06:58:16;;;;;;;5.88;2.40;;;;;;;13.52;80.71;101434.88;4937787;29;20102;-73
2022/06/10 07:01:20;;;;;;;4.57;2.40;;;;;;;13.50;79.82;101442.00;4936107;29;20111;-75
2022/06/10 07:04:23;;;;;;;6.95;1.98;;;;;;;13.66;79.92;101435.06;4963484;28;20456;-75
2022/06/10 07:07:27;;;;;;;4.88;2.22;;;;;;;13.80;79.56;101436.97;4959231;28;20038;-75
2022/06/10 07:10:30;;;;;;;3.17;1.40;;;;;;;13.93;80.24;101432.78;4967564;28;20105;-75
2022/06/10 07:13:35;;;;;;;3.38;1.83;;;;;;;14.05;80.82;101431.28;4956101;28;20067;-77
2022/06/10 07:16:39;;;;;;;3.38;1.90;;;;;;;14.14;80.46;101430.81;4979517;28;20179;-77
2022/06/10 07:19:42;;;;;;;6.88;1.90;;;;;;;14.29;81.38;101431.75;4978071;28;20061;-75
2022/06/10 07:22:46;;;;;;;5.50;1.48;;;;;;;14.39;81.19;101421.63;4960782;28;20142;-75
2022/06/10 07:25:49;;;;;;;5.82;2.05;;;;;;;14.49;80.55;101425.44;4959934;28;20517;-77
2022/06/10 07:28:52;;;;;;;3.47;2.08;;;;;;;14.62;80.86;101426.50;4962296;28;20053;-76
2022/06/10 07:31:56;;;;;;;6.80;1.60;;;;;;;14.73;79.69;101420.63;4961848;28;20057;-74
2022/06/10 07:34:59;;;;;;;3.28;1.63;;;;;;;14.86;79.31;101420.81;4959282;28;20594;-75
2022/06/10 07:38:03;;;;;;;5.50;1.40;;;;;;;15.03;79.42;101422.50;4956695;28;20469;-74
2022/06/10 07:44:33;;;;;;;4.32;1.50;;;;;;;15.22;77.63;101411.75;4974794;28;20061;-63
2022/06/10 07:47:36;;;;;;;4.82;1.40;;;;;;;15.38;77.41;101406.44;4975248;28;20050;-63
2022/06/10 07:50:42;;;;;;;4.93;1.40;;;;;;;15.57;77.97;101413.19;4975586;28;20049;-63
2022/06/10 07:53:46;;;;;;;5.68;1.50;;;;;;;15.74;76.76;101403.47;4975328;28;20101;-62
2022/06/10 07:56:50;;;;;;;4.15;1.33;;;;;;;15.90;75.21;101409.50;4975297;28;20049;-63
2022/06/10 07:59:53;;;;;;;6.53;1.30;;;;;;;16.08;72.54;101398.75;4975153;28;20527;-63
2022/06/10 08:02:57;;;;;;;5.72;1.30;;;;;;;16.17;71.92;101401.69;4975195;28;20117;-62
2022/06/10 08:06:01;;;;;;;4.40;1.60;;;;;;;16.27;71.25;101401.97;4975147;28;20061;-63
2022/06/10 08:09:04;;;;;;;4.40;1.30;;;;;;;16.50;70.00;101390.81;4974944;28;20466;-64
2022/06/10 08:12:07;;;;;;;8.77;2.45;;;;;;;17.11;68.23;101399.25;4975415;28;20045;-63
2022/06/10 08:15:16;;;;;;;5.93;1.48;;;;;;;17.20;67.66;101387.25;4974104;28;20101;-64
2022/06/10 08:18:21;;;;;;;5.90;1.98;;;;;;;17.37;67.06;101389.59;4974831;28;20121;-63
2022/06/10 08:22:32;;;;;;;8.18;2.03;;;;;;;17.23;67.98;101387.03;4974756;28;20041;-63
2022/06/10 08:24:53;;;;;;;11.68;1.90;;;;;;;17.18;66.61;101381.19;4972630;28;20412;-63
2022/06/10 08:27:56;;;;;;;12.38;1.70;;;;;;;17.31;67.56;101383.88;4974773;28;20050;-63
2022/06/10 08:31:00;;;;;;;11.90;2.50;;;;;;;17.43;66.25;101385.69;4974475;28;20415;-63
2022/06/10 08:34:03;;;;;;;8.57;1.60;;;;;;;17.38;66.67;101393.06;4974753;28;20049;-63
2022/06/10 08:37:06;;;;;;;4.57;1.35;;;;;;;17.41;67.46;101385.78;4974265;28;20089;-62
2022/06/10 08:40:21;;;;;;;8.52;1.88;;;;;;;17.61;65.78;101383.59;4974175;28;20050;-63
2022/06/10 08:43:45;;;;;;;8.05;1.75;;;;;;;17.70;65.91;101388.25;4974423;28;20109;-63
2022/06/10 08:46:48;;;;;;;10.32;2.17;;;;;;;17.83;64.05;101386.47;4974307;28;20105;-63
2022/06/10 08:50:18;;;;;;;5.00;1.20;;;;;;;17.85;64.89;101381.09;4974512;28;20056;-63
2022/06/10 08:53:50;;;;;;;5.25;1.38;;;;;;;18.20;64.28;101380.44;4973731;28;20053;-63
2022/06/10 08:57:02;;;;;;;7.80;2.03;;;;;;;18.41;61.94;101378.03;4974143;28;20065;-63
2022/06/10 09:00:23;;;;;;;6.35;1.17;;;;;;;18.59;62.16;101374.91;4973898;28;20141;-63
2022/06/10 09:03:56;;;;;;;8.50;1.88;;;;;;;18.53;62.07;101377.16;4961643;28;20417;-63
2022/06/10 09:07:06;;;;;;;5.60;1.45;;;;;;;18.69;61.33;101375.09;4954431;29;20046;-62
2022/06/10 09:10:23;;;;;;;5.78;1.50;;;;;;;18.74;60.81;101378.28;4964905;28;20118;-62
2022/06/10 09:13:39;;;;;;;5.63;1.38;;;;;;;18.73;61.38;101373.97;4954594;29;20102;-62
2022/06/10 09:17:20;;;;;;;9.20;1.80;;;;;;;18.87;60.55;101377.41;4954556;29;20054;-63
2022/06/10 09:20:39;;;;;;;9.30;1.98;;;;;;;19.01;58.08;101380.69;4971079;28;20145;-62
2022/06/10 09:23:44;;;;;;;9.30;2.38;;;;;;;18.99;58.19;101379.97;4972652;28;20093;-65
2022/06/10 09:27:24;;;;;;;9.38;2.03;;;;;;;18.95;58.17;101380.31;4957777;28;20085;-64
2022/06/10 09:30:40;;;;;;;7.80;1.40;;;;;;;18.95;57.56;101372.34;4950516;29;20046;-62
2022/06/10 09:34:19;;;;;;;12.20;2.38;;;;;;;19.10;57.05;101375.69;4954389;28;20130;-62
2022/06/10 09:37:28;;;;;;;9.25;1.85;;;;;;;19.25;56.27;101378.03;4954838;28;20097;-63
2022/06/10 09:40:50;;;;;;;6.57;1.92;;;;;;;19.29;55.91;101371.53;4949908;28;20070;-65
2022/06/10 09:44:19;;;;;;;7.55;1.90;;;;;;;19.33;56.48;101384.56;4955035;28;20050;-63
2022/06/10 09:47:44;;;;;;;5.07;1.33;;;;;;;19.19;56.84;101370.53;4953161;29;20147;-64
2022/06/10 09:51:03;;;;;;;7.72;2.20;;;;;;;19.10;56.83;101365.91;4954323;29;20589;-64
2022/06/10 09:54:31;;;;;;;7.95;1.77;;;;;;;19.15;56.52;101366.44;4953875;29;20114;-63
2022/06/10 09:58:02;;;;;;;5.63;1.55;;;;;;;19.17;56.49;101363.66;4953734;29;20058;-63
2022/06/10 10:01:45;;;;;;;8.55;1.60;;;;;;;19.41;55.06;101356.50;4953871;29;20058;-63
2022/06/10 10:04:54;;;;;;;9.43;1.50;;;;;;;19.41;54.60;101350.34;4953411;29;20046;-63
2022/06/10 10:08:18;;;;;;;6.85;1.48;;;;;;;19.47;53.04;101347.25;4953319;29;20054;-73
2022/06/10 10:11:53;;;;;;;7.85;1.80;;;;;;;19.50;54.18;101353.16;4939074;28;20120;-75
2022/06/10 10:15:04;;;;;;;8.50;1.70;;;;;;;19.50;53.78;101354.97;4953740;29;20047;-73
2022/06/10 10:18:08;;;;;;;8.57;2.17;;;;;;;19.40;53.42;101348.66;4953795;29;20050;-74
2022/06/10 10:21:17;;;;;;;9.07;1.80;;;;;;;19.45;53.19;101349.16;4953730;29;20054;-73
2022/06/10 10:24:24;;;;;;;6.65;1.98;;;;;;;19.77;53.24;101343.19;4953752;29;20814;-74
2022/06/10 10:27:33;;;;;;;6.05;1.63;;;;;;;19.93;51.52;101341.03;4953718;29;20054;-75
2022/06/10 10:30:44;;;;;;;9.32;2.03;;;;;;;19.96;51.62;101338.13;4953722;29;20062;-75
2022/06/10 10:33:47;;;;;;;7.47;1.88;;;;;;;19.77;50.94;101330.78;4941551;29;20089;-75
2022/06/10 10:36:58;;;;;;;9.20;2.08;;;;;;;19.77;51.88;101335.25;4953377;29;20520;-75
2022/06/10 10:40:14;;;;;;;8.25;1.88;;;;;;;19.69;51.47;101334.03;4974334;28;20066;-75
2022/06/10 10:43:27;;;;;;;7.15;2.00;;;;;;;19.77;51.54;101329.94;4953290;29;20469;-75
2022/06/10 10:46:42;;;;;;;;;;;;;;;19.70;52.71;101332.22;4953815;29;20053;-75
2022/06/10 10:49:53;;;;;;;9.20;1.95;;;;;;;19.94;51.64;101332.97;4953173;29;20438;-74
2022/06/10 10:52:58;;;;;;;6.43;1.58;;;;;;;20.11;52.22;101328.97;4953382;29;20134;-75
2022/06/10 10:56:04;;;;;;;6.90;1.92;;;;;;;20.14;50.82;101334.03;4953402;29;20425;-76
2022/06/10 10:59:23;;;;;;;7.10;1.67;;;;;;;20.14;50.06;101315.44;4953280;29;20148;-89
2022/06/10 11:02:30;;;;;;;8.85;1.92;;;;;;;20.14;49.69;101322.56;4953312;29;20045;-73
2022/06/10 11:05:47;;;;;;;8.40;1.73;;;;;;;20.17;50.17;101323.16;4953290;29;20046;-80
2022/06/10 11:08:57;;;;;;;6.72;1.42;;;;;;;20.27;49.97;101327.75;4953144;29;20050;-76
2022/06/10 11:12:03;;;;;;;6.80;1.80;;;;;;;20.27;50.24;101331.22;4953259;29;20051;-75
2022/06/10 11:15:16;;;;;;;9.45;1.50;;;;;;;20.29;50.43;101328.44;4953197;29;20414;-75
2022/06/10 11:18:19;;;;;;;8.18;2.15;;;;;;;20.33;48.96;101327.25;4955421;28;20105;-74
2022/06/10 11:21:27;;;;;;;7.22;1.50;;;;;;;20.38;48.71;101320.56;4956423;29;20184;-74
2022/06/10 11:24:37;;;;;;;10.63;1.92;;;;;;;20.36;49.65;101324.34;4956420;29;20302;-76
2022/06/10 11:27:50;;;;;;;6.25;2.00;;;;;;;20.47;48.96;101323.47;4955635;29;20050;-75
2022/06/10 11:30:53;;;;;;;7.03;1.88;;;;;;;20.55;48.79;101315.72;4956648;29;20081;-75
2022/06/10 11:33:59;;;;;;;7.18;1.77;;;;;;;20.44;48.58;101316.59;4955678;28;20050;-72
2022/06/10 11:37:44;;;;;;;8.93;1.67;;;;;;;20.49;48.29;101311.75;4956228;29;20049;-74
2022/06/10 11:40:52;;;;;;;7.75;1.95;;;;;;;20.43;48.15;101306.94;4956102;29;20050;-73
2022/06/10 11:44:04;;;;;;;8.98;1.55;;;;;;;20.49;48.47;101309.09;4956252;29;20089;-74
2022/06/10 11:47:29;;;;;;;7.53;1.98;;;;;;;20.53;48.11;101304.41;4956128;29;20097;-71
2022/06/10 11:50:44;;;;;;;7.90;2.03;;;;;;;20.57;48.69;101308.47;4956092;29;20425;-74
2022/06/10 11:53:48;;;;;;;5.55;1.67;;;;;;;20.48;49.19;101294.09;4955360;28;20050;-77
2022/06/10 12:00:24;;;;;;;5.45;1.42;;;;;;;20.89;47.61;101292.53;4955691;28;20050;-73
2022/06/10 12:03:33;;;;;;;10.75;1.50;;;;;;;20.97;47.24;101282.09;4955155;29;20581;-67
2022/06/10 12:06:50;;;;;;;6.70;1.88;;;;;;;21.10;47.28;101279.25;4966060;28;20136;-63
2022/06/10 12:09:58;;;;;;;6.78;1.63;;;;;;;21.32;47.21;101278.28;4974886;28;20416;-69
2022/06/10 12:13:01;;;;;;;7.47;2.08;;;;;;;21.69;47.02;101267.94;4974360;28;20134;-67
2022/06/10 12:16:06;;;;;;;5.25;1.40;;;;;;;21.86;45.38;101263.84;4974099;28;20108;-65
2022/06/10 12:19:20;;;;;;;8.52;2.05;;;;;;;22.12;45.15;101260.66;4961517;28;20065;-64
2022/06/10 12:22:26;;;;;;;8.50;1.52;;;;;;;22.27;44.64;101253.97;4935110;29;20071;-63
2022/06/10 12:25:45;;;;;;;5.47;1.40;;;;;;;22.29;44.43;101260.03;4940228;28;20046;-64
2022/06/10 12:28:58;;;;;;;10.02;1.65;;;;;;;22.24;45.39;101259.59;4954068;28;20049;-64
2022/06/10 12:32:15;;;;;;;8.25;1.98;;;;;;;22.29;43.78;101263.53;4969971;28;20521;-73
2022/06/10 12:35:26;;;;;;;7.20;1.70;;;;;;;22.30;43.48;101264.34;4964358;28;20099;-74
2022/06/10 12:38:35;;;;;;;8.38;1.73;;;;;;;22.37;42.34;101264.66;4957881;28;20070;-83
2022/06/10 12:41:45;;;;;;;7.18;1.60;;;;;;;22.76;41.95;101257.50;4973477;28;20054;-77
2022/06/10 12:44:52;;;;;;;7.00;1.80;;;;;;;23.10;41.50;101249.06;4974165;28;20046;-78
2022/06/10 12:47:59;;;;;;;8.43;1.10;;;;;;;23.20;41.16;101255.22;4974258;28;20575;-74
2022/06/10 12:51:12;;;;;;;8.68;1.60;;;;;;;23.47;41.21;101249.09;4974315;28;20443;-75
2022/06/10 12:54:43;;;;;;;8.88;2.20;;;;;;;23.34;41.01;101246.75;4962282;28;20405;-74
2022/06/10 12:57:47;;;;;;;7.40;1.55;;;;;;;23.33;42.37;101253.09;4972940;28;20054;-74
2022/06/10 13:00:51;;;;;;;8.60;1.60;;;;;;;22.54;43.04;101260.47;4967267;28;20105;-73
2022/06/10 13:04:00;;;;;;;8.18;1.60;;;;;;;22.23;44.38;101255.25;4962104;28;20409;-74
2022/06/10 13:07:05;;;;;;;9.32;1.73;;;;;;;22.02;44.72;101266.81;4968723;28;20049;-74
2022/06/10 13:10:32;;;;;;;8.82;1.50;;;;;;;21.99;44.76;101263.59;4941593;28;20050;-75
2022/06/10 13:13:37;;;;;;;6.53;1.90;;;;;;;21.89;45.75;101260.03;4950465;28;20049;-76
2022/06/10 13:17:06;;;;;;;8.68;1.95;;;;;;;21.55;46.93;101255.03;4972376;28;20054;-75
2022/06/10 13:20:19;;;;;;;6.80;1.50;;;;;;;21.50;47.06;101254.56;4961945;28;20081;-74
2022/06/10 13:23:27;;;;;;;8.90;1.60;;;;;;;21.48;47.03;101265.34;4935251;29;20183;-75
2022/06/10 13:26:32;;;;;;;9.88;2.25;;;;;;;21.57;46.77;101261.06;4935354;29;20086;-77
2022/06/10 13:29:48;;;;;;;7.13;1.40;;;;;;;21.59;47.06;101267.91;4945502;29;20418;-73
2022/06/10 13:32:54;;;;;;;7.90;1.88;;;;;;;21.71;46.60;101267.84;4935226;29;20053;-74
2022/06/10 13:35:58;;;;;;;7.05;1.60;;;;;;;21.89;45.63;101260.03;4934871;29;20046;-74
2022/06/10 13:39:04;;;;;;;7.90;1.75;;;;;;;21.65;46.72;101263.88;4934967;29;20570;-74
2022/06/10 13:42:20;;;;;;;7.80;2.63;;;;;;;22.16;45.57;101254.13;4934184;29;20071;-73
2022/06/10 13:45:31;;;;;;;5.70;1.45;;;;;;;22.56;44.96;101247.81;4935095;29;20098;-66
2022/06/10 13:48:34;;;;;;;12.88;1.77;;;;;;;22.94;43.34;101250.50;4935028;29;20046;-66
2022/06/10 13:51:44;;;;;;;16.98;1.60;;;;;;;23.47;42.87;101248.25;4934702;29;20066;-66
2022/06/10 13:54:48;;;;;;;17.30;2.13;;;;;;;23.21;43.66;101248.91;4949350;28;20050;-66
2022/06/10 13:58:15;;;;;;;7.53;1.48;;;;;;;23.18;42.65;101239.34;4954379;28;20077;-66
2022/06/10 14:01:31;;;;;;;7.25;1.55;;;;;;;23.42;41.95;101243.34;4968398;28;20065;-66
2022/06/10 14:04:35;;;;;;;5.43;1.33;;;;;;;23.54;41.38;101244.00;4963113;28;20046;-66
2022/06/10 14:07:40;;;;;;;6.15;1.63;;;;;;;23.35;41.08;101245.75;4956432;28;20097;-66
2022/06/10 14:10:47;;;;;;;5.22;1.55;;;;;;;23.41;41.41;101244.34;4953875;29;20457;-67
2022/06/10 14:14:04;;;;;;;6.63;1.83;;;;;;;23.83;40.48;101239.38;4953694;29;20130;-66
2022/06/10 14:17:10;;;;;;;8.43;2.17;;;;;;;24.14;40.73;101228.38;4955450;28;20126;-66
2022/06/10 14:20:15;;;;;;;8.43;1.65;;;;;;;24.27;39.78;101231.50;4945915;28;20050;-67
2022/06/10 14:23:31;;;;;;;6.95;1.90;;;;;;;23.51;41.29;101228.28;4953675;29;20042;-67
2022/06/10 14:26:37;;;;;;;4.85;1.63;;;;;;;23.01;42.39;101231.28;4953089;29;20465;-66
2022/06/10 14:29:43;;;;;;;6.20;1.80;;;;;;;23.62;41.44;101233.44;4953790;29;20097;-66
2022/06/10 14:33:15;;;;;;;6.28;1.45;;;;;;;23.41;41.59;101223.81;4953519;28;20090;-67
2022/06/10 14:36:24;;;;;;;6.82;1.63;;;;;;;23.04;42.72;101226.50;4953749;29;20151;-66
2022/06/10 14:39:30;;;;;;;7.63;1.60;;;;;;;23.04;42.66;101225.63;4953328;29;20109;-77
2022/06/10 14:42:34;;;;;;;8.30;1.85;;;;;;;22.89;43.52;101223.38;4963907;28;20057;-78
2022/06/10 14:45:41;;;;;;;6.63;1.73;;;;;;;22.50;44.32;101226.09;4953566;29;20074;-82
2022/06/10 14:48:44;;;;;;;6.03;1.63;;;;;;;22.65;44.47;101228.31;4952696;29;20113;-80
2022/06/10 14:51:50;;;;;;;6.50;2.08;;;;;;;22.58;44.49;101225.38;4954304;28;20573;-75
2022/06/10 14:54:55;;;;;;;6.40;1.48;;;;;;;22.88;43.21;101221.72;4957493;29;20125;-78
2022/06/10 14:58:09;;;;;;;6.75;1.85;;;;;;;23.53;41.76;101219.13;4957081;29;20050;-76